Time;durP1;ratioP1;P1;durP2;ratioP2;P2;SDS_P1;SDS_P2;PMS_P1;PMS_P2;Temp;Humidity;BMP_temperature;BMP_pressure;BME280_temperature;BME280_humidity;BME280_pressure;Samples;Min_cycle;Max_cycle;Signal;HPM_P1;HPM_P2
2022/11/06 00:01:19;;;;;;;1.95;0.60;;;;;;;11.23;46.77;98464.19;5091655;28;20589;-62
2022/11/06 00:03:44;;;;;;;1.70;0.50;;;;;;;11.23;47.76;98472.00;5095040;28;20034;-62
2022/11/06 00:06:47;;;;;;;3.13;0.82;;;;;;;11.18;50.64;98476.03;5089706;28;20027;-61
2022/11/06 00:09:14;;;;;;;1.60;0.55;;;;;;;10.92;57.39;98441.19;5109737;27;20015;-62
2022/11/06 00:11:40;;;;;;;1.85;0.60;;;;;;;11.06;53.33;98470.22;5089432;28;20023;-62
2022/11/06 00:14:06;;;;;;;2.35;0.90;;;;;;;10.92;54.98;98466.41;5099809;27;20405;-61
2022/11/06 00:16:32;;;;;;;2.13;0.70;;;;;;;11.01;55.60;98469.88;5093959;27;20028;-62
2022/11/06 00:19:01;;;;;;;1.30;0.47;;;;;;;10.76;55.56;98438.47;5093557;28;20793;-62
2022/11/06 00:21:28;;;;;;;2.40;0.70;;;;;;;10.81;56.58;98467.44;5092646;28;20501;-62
2022/11/06 00:23:56;;;;;;;2.58;0.70;;;;;;;10.82;48.64;98466.47;5073077;28;20081;-61
2022/11/06 00:26:24;;;;;;;0.82;0.40;;;;;;;11.24;43.69;98467.59;5096709;28;20054;-61
2022/11/06 00:28:49;;;;;;;1.00;0.40;;;;;;;11.20;42.77;98435.84;5107462;27;20569;-62
2022/11/06 00:31:18;;;;;;;1.10;0.40;;;;;;;11.44;43.29;98461.22;5094460;28;20019;-61
2022/11/06 00:33:44;;;;;;;1.60;0.50;;;;;;;11.35;44.04;98457.78;5088631;28;20035;-62
2022/11/06 00:36:14;;;;;;;1.55;0.50;;;;;;;11.29;44.52;98473.97;5077567;28;20121;-62
2022/11/06 00:38:39;;;;;;;1.67;0.50;;;;;;;11.20;45.53;98461.88;5076369;28;20439;-61
2022/11/06 00:41:07;;;;;;;1.75;0.60;;;;;;;11.21;45.40;98467.88;5108537;27;20031;-61
2022/11/06 00:43:34;;;;;;;1.35;0.47;;;;;;;11.25;46.43;98479.66;5090075;28;20020;-61
2022/11/06 00:46:07;;;;;;;2.75;0.77;;;;;;;11.18;47.41;98461.22;5078065;28;20738;-62
2022/11/06 00:48:35;;;;;;;2.05;0.70;;;;;;;10.92;47.96;98435.19;5091606;28;20028;-62
2022/11/06 00:51:10;;;;;;;1.88;0.60;;;;;;;11.14;47.54;98476.31;5073525;28;20169;-61
2022/11/06 00:53:35;;;;;;;1.65;0.60;;;;;;;11.23;46.37;98476.38;5091135;28;20031;-61
2022/11/06 00:56:08;;;;;;;1.70;0.60;;;;;;;11.11;46.58;98437.56;5096915;28;20031;-61
2022/11/06 00:58:34;;;;;;;1.55;0.50;;;;;;;11.25;47.79;98477.06;5094674;28;20019;-61
2022/11/06 01:01:09;;;;;;;2.47;0.60;;;;;;;11.18;48.81;98478.63;5095139;28;20549;-62
2022/11/06 01:03:36;;;;;;;1.77;0.50;;;;;;;11.10;48.40;98476.78;5089451;28;20020;-62
2022/11/06 01:06:22;;;;;;;1.73;0.60;;;;;;;11.04;49.25;98485.19;5094288;28;20034;-61
2022/11/06 01:08:48;;;;;;;1.30;0.52;;;;;;;10.94;50.00;98480.06;5079002;28;20067;-62
2022/11/06 01:11:15;;;;;;;1.90;0.52;;;;;;;11.01;49.27;98491.50;5106907;27;20067;-61
2022/11/06 01:13:41;;;;;;;1.75;0.52;;;;;;;10.93;49.33;98497.47;5094556;28;20172;-61
2022/11/06 01:16:08;;;;;;;1.63;0.60;;;;;;;10.86;49.58;98508.59;5092080;28;20981;-62
2022/11/06 01:18:35;;;;;;;1.27;0.43;;;;;;;10.92;49.04;98508.81;5083682;28;20046;-61
2022/11/06 01:21:21;;;;;;;1.98;0.60;;;;;;;10.83;49.10;98517.53;5089779;28;20078;-61
2022/11/06 01:23:55;;;;;;;1.73;0.57;;;;;;;10.62;49.46;98484.00;5100748;28;21262;-61
2022/11/06 01:26:20;;;;;;;1.75;0.60;;;;;;;10.61;49.82;98476.38;5093277;28;20077;-61
2022/11/06 01:28:46;;;;;;;2.30;0.80;;;;;;;10.87;50.14;98513.66;5090428;28;20130;-61
2022/11/06 01:31:17;;;;;;;2.67;0.73;;;;;;;10.87;50.41;98510.25;5097266;28;20042;-62
2022/11/06 01:33:43;;;;;;;2.25;0.65;;;;;;;10.83;49.83;98511.50;5096206;28;20316;-62
2022/11/06 01:36:10;;;;;;;1.90;0.55;;;;;;;10.80;50.25;98517.81;5070686;28;20584;-62
2022/11/06 01:38:38;;;;;;;2.17;0.60;;;;;;;10.84;50.04;98515.72;5122520;27;20026;-62
2022/11/06 01:41:04;;;;;;;2.10;0.60;;;;;;;10.84;49.84;98516.56;5077729;28;20031;-61
2022/11/06 01:44:03;;;;;;;3.67;1.17;;;;;;;10.75;50.25;98513.06;5093320;28;20031;-61
2022/11/06 01:46:31;;;;;;;3.15;0.68;;;;;;;10.65;50.60;98498.50;5063500;28;20047;-61
2022/11/06 01:49:04;;;;;;;2.35;0.63;;;;;;;10.57;49.94;98483.66;5096001;28;20391;-62
2022/11/06 01:51:33;;;;;;;1.40;0.50;;;;;;;10.86;49.14;98522.44;5110854;27;20038;-62
2022/11/06 01:53:58;;;;;;;1.75;0.50;;;;;;;10.72;49.22;98528.16;5100382;28;20070;-61
2022/11/06 01:56:24;;;;;;;3.25;0.88;;;;;;;10.68;49.46;98524.22;5101872;28;20770;-61
2022/11/06 01:58:51;;;;;;;1.60;0.50;;;;;;;10.65;49.10;98507.09;5097241;28;20278;-61
2022/11/06 02:01:17;;;;;;;1.65;0.43;;;;;;;10.75;48.89;98522.63;5094888;28;20038;-62
2022/11/06 02:03:49;;;;;;;1.85;0.70;;;;;;;10.75;48.80;98513.06;5091003;28;20075;-61
2022/11/06 02:06:15;;;;;;;1.77;0.52;;;;;;;10.28;49.03;98450.03;5115431;27;20111;-59
2022/11/06 02:08:40;;;;;;;2.03;0.60;;;;;;;10.69;49.48;98516.25;5091653;28;20030;-61
2022/11/06 02:11:07;;;;;;;1.13;0.40;;;;;;;10.64;50.11;98499.44;5078328;28;20042;-62
2022/11/06 02:13:44;;;;;;;1.77;0.60;;;;;;;10.68;54.05;98516.41;5081787;28;20067;-60
2022/11/06 02:16:40;;;;;;;1.63;0.55;;;;;;;10.61;50.87;98512.78;5099993;28;20044;-60
2022/11/06 02:19:20;;;;;;;1.90;0.47;;;;;;;10.65;51.19;98509.72;5090138;28;20047;-61
2022/11/06 02:21:51;;;;;;;1.05;0.43;;;;;;;10.53;51.94;98506.53;5093225;28;20028;-61
2022/11/06 02:24:22;;;;;;;0.82;0.40;;;;;;;10.63;52.20;98506.44;5095529;28;20072;-60
2022/11/06 02:27:10;;;;;;;0.70;0.20;;;;;;;10.55;52.37;98496.78;5097350;27;20039;-61
2022/11/06 02:29:54;;;;;;;1.20;0.50;;;;;;;10.61;52.47;98494.56;5099020;27;20320;-61
2022/11/06 02:32:42;;;;;;;1.50;0.50;;;;;;;10.60;52.02;98485.13;5094605;28;20105;-60
2022/11/06 02:35:22;;;;;;;2.17;0.68;;;;;;;10.58;52.83;98478.28;5100972;28;20027;-60
2022/11/06 02:37:52;;;;;;;2.35;0.55;;;;;;;10.56;53.45;98498.41;5100186;28;20023;-61
2022/11/06 02:40:19;;;;;;;1.55;0.47;;;;;;;10.52;53.69;98494.47;5095244;28;20077;-60
2022/11/06 02:42:48;;;;;;;1.08;0.43;;;;;;;10.43;54.08;98494.53;5094580;28;20823;-60
2022/11/06 02:45:16;;;;;;;1.97;0.57;;;;;;;10.45;53.60;98488.22;5097682;28;20097;-61
2022/11/06 02:47:43;;;;;;;1.50;0.50;;;;;;;10.37;53.62;98486.38;5094370;28;20273;-60
2022/11/06 02:50:24;;;;;;;2.05;0.50;;;;;;;10.41;53.00;98481.69;5096708;28;20106;-60
2022/11/06 02:52:56;;;;;;;1.80;0.60;;;;;;;10.42;53.49;98492.91;5099405;28;20038;-60
2022/11/06 02:55:28;;;;;;;1.17;0.43;;;;;;;10.22;54.15;98456.59;5089379;28;20147;-60
2022/11/06 02:57:57;;;;;;;1.17;0.45;;;;;;;10.29;54.43;98473.25;5095424;28;20039;-61
2022/11/06 03:00:24;;;;;;;1.10;0.40;;;;;;;10.32;54.57;98472.97;5111984;27;20032;-61
2022/11/06 03:02:57;;;;;;;1.73;0.60;;;;;;;10.30;54.48;98472.28;5112353;27;20028;-61
2022/11/06 03:05:53;;;;;;;0.85;0.40;;;;;;;10.38;56.66;98482.78;5097775;28;20027;-61
2022/11/06 03:08:49;;;;;;;1.70;0.40;;;;;;;10.39;58.26;98481.84;5089490;28;20032;-60
2022/11/06 03:11:27;;;;;;;1.60;0.60;;;;;;;10.31;59.45;98491.31;5101120;28;20502;-60
2022/11/06 03:14:01;;;;;;;1.90;0.50;;;;;;;10.29;56.58;98494.03;5079436;28;20036;-61
2022/11/06 03:16:42;;;;;;;1.50;0.40;;;;;;;9.92;56.16;98460.31;5102085;27;20664;-61
2022/11/06 03:19:33;;;;;;;1.75;0.55;;;;;;;10.26;54.94;98496.94;5100293;28;20031;-61
2022/11/06 03:22:04;;;;;;;1.38;0.40;;;;;;;10.25;54.79;98497.88;5097450;27;20036;-60
2022/11/06 03:24:36;;;;;;;3.45;0.63;;;;;;;10.22;54.92;98497.34;5098124;28;20099;-61
2022/11/06 03:27:10;;;;;;;1.63;0.50;;;;;;;10.23;55.12;98505.00;5093908;28;20461;-61
2022/11/06 03:29:42;;;;;;;1.13;0.40;;;;;;;10.13;55.58;98501.63;5096395;28;20031;-62
2022/11/06 03:32:10;;;;;;;0.75;0.30;;;;;;;9.95;54.71;98466.06;5094626;28;20079;-61
2022/11/06 03:34:47;;;;;;;1.70;0.40;;;;;;;9.91;55.53;98463.88;5102365;28;20081;-60
2022/11/06 03:37:17;;;;;;;1.50;0.50;;;;;;;10.07;55.69;98474.44;5100607;28;20781;-61
2022/11/06 03:39:49;;;;;;;0.98;0.30;;;;;;;10.17;56.25;98480.44;5101229;27;20035;-61
2022/11/06 03:42:20;;;;;;;2.15;0.50;;;;;;;10.07;56.45;98481.44;5071180;28;20115;-61
2022/11/06 03:44:57;;;;;;;1.45;0.50;;;;;;;10.04;57.23;98477.38;5105350;27;20027;-61
2022/11/06 03:47:32;;;;;;;2.67;0.57;;;;;;;9.88;57.72;98465.00;5077308;28;20031;-61
2022/11/06 03:50:02;;;;;;;1.25;0.40;;;;;;;10.00;57.67;98473.41;5103464;27;20482;-60
2022/11/06 03:52:39;;;;;;;1.17;0.32;;;;;;;9.92;58.42;98473.31;5096463;28;20035;-61
2022/11/06 03:55:11;;;;;;;1.20;0.40;;;;;;;9.92;58.16;98468.13;5076770;28;20030;-61
2022/11/06 03:57:46;;;;;;;0.85;0.35;;;;;;;9.72;57.39;98431.03;5099210;28;20031;-61
2022/11/06 04:00:12;;;;;;;2.13;0.55;;;;;;;9.88;58.25;98466.78;5107209;27;20033;-61
2022/11/06 04:02:41;;;;;;;0.80;0.40;;;;;;;9.83;58.60;98482.78;5081952;28;20127;-61
2022/11/06 04:05:20;;;;;;;1.52;0.55;;;;;;;9.79;57.85;98484.84;5097386;28;20115;-62
2022/11/06 04:16:18;;;;;;;2.13;0.40;;;;;;;9.87;57.90;98494.50;5095837;28;20047;-61
2022/11/06 04:18:43;;;;;;;0.85;0.28;;;;;;;9.83;57.95;98503.56;5100728;28;20028;-61
2022/11/06 04:21:32;;;;;;;1.92;0.50;;;;;;;9.74;57.61;98507.00;5093956;28;20036;-61
2022/11/06 04:26:55;;;;;;;2.10;0.57;;;;;;;9.77;58.39;98514.50;5094080;27;20046;-59
2022/11/06 04:29:23;;;;;;;1.83;0.55;;;;;;;9.48;57.70;98488.63;5092972;28;20059;-61
2022/11/06 04:31:51;;;;;;;1.58;0.50;;;;;;;9.69;58.66;98517.81;5100431;28;20101;-61
2022/11/06 04:34:40;;;;;;;1.98;0.40;;;;;;;9.65;58.50;98523.44;5099509;28;20024;-61
2022/11/06 04:37:10;;;;;;;1.25;0.40;;;;;;;9.70;58.72;98523.81;5089219;28;20042;-61
2022/11/06 04:39:47;;;;;;;1.02;0.55;;;;;;;9.64;58.67;98530.41;5096889;28;20122;-61
2022/11/06 04:42:28;;;;;;;2.80;0.50;;;;;;;9.63;58.51;98520.97;5094894;28;20035;-61
2022/11/06 04:45:18;;;;;;;1.08;0.40;;;;;;;9.63;58.29;98533.94;5098402;28;20024;-62
2022/11/06 04:47:44;;;;;;;1.15;0.40;;;;;;;9.60;57.61;98539.41;5097174;28;20065;-61
2022/11/06 04:50:11;;;;;;;2.30;0.45;;;;;;;9.62;58.21;98540.94;5077595;28;20549;-61
2022/11/06 04:52:37;;;;;;;1.00;0.40;;;;;;;9.55;58.00;98541.63;5095820;28;20058;-61
2022/11/06 04:55:02;;;;;;;0.70;0.40;;;;;;;9.38;57.22;98494.69;5112781;27;20506;-61
2022/11/06 04:57:28;;;;;;;1.25;0.40;;;;;;;9.59;57.21;98525.63;5100762;28;20055;-60
2022/11/06 04:59:55;;;;;;;2.20;0.50;;;;;;;9.57;57.48;98532.72;5096731;28;20066;-62
2022/11/06 05:02:21;;;;;;;1.25;0.50;;;;;;;9.53;58.34;98527.97;5094412;28;20031;-61
2022/11/06 05:04:46;;;;;;;1.48;0.40;;;;;;;9.48;58.76;98537.97;5093266;28;20037;-61
2022/11/06 05:07:13;;;;;;;1.20;0.30;;;;;;;9.48;58.77;98532.75;5099489;27;20039;-61
2022/11/06 05:09:38;;;;;;;0.95;0.30;;;;;;;9.56;58.36;98549.25;5080146;28;20059;-60
2022/11/06 05:12:04;;;;;;;2.72;0.70;;;;;;;9.48;58.46;98551.75;5096257;28;20119;-61
2022/11/06 05:14:31;;;;;;;2.45;0.77;;;;;;;9.30;58.18;98525.69;5099764;28;20035;-61
2022/11/06 05:16:56;;;;;;;2.03;0.75;;;;;;;9.48;57.79;98556.13;5099509;28;20027;-61
2022/11/06 05:19:22;;;;;;;1.10;0.50;;;;;;;9.42;58.14;98562.69;5081978;28;20035;-61
2022/11/06 05:24:31;;;;;;;1.50;0.50;;;;;;;9.51;56.93;98559.25;5089422;28;20849;-61
2022/11/06 05:26:56;;;;;;;1.30;0.50;;;;;;;9.46;57.66;98564.03;5098074;28;20103;-61
2022/11/06 05:29:22;;;;;;;1.45;0.50;;;;;;;9.51;56.88;98553.22;5093562;28;20016;-61
2022/11/06 05:31:47;;;;;;;1.20;0.40;;;;;;;9.45;57.61;98546.81;5098500;28;20124;-60
2022/11/06 05:34:13;;;;;;;0.82;0.30;;;;;;;9.40;58.17;98557.63;5101320;28;20039;-61
2022/11/06 05:36:38;;;;;;;1.33;0.40;;;;;;;9.42;58.22;98550.53;5098861;28;20189;-62
2022/11/06 05:39:04;;;;;;;0.98;0.30;;;;;;;9.35;58.74;98557.22;5082541;28;20099;-61
2022/11/06 05:41:29;;;;;;;0.65;0.30;;;;;;;9.35;58.33;98552.03;5093708;28;20040;-61
2022/11/06 05:43:54;;;;;;;1.38;0.50;;;;;;;9.40;58.84;98556.78;5094576;28;20027;-62
2022/11/06 05:46:20;;;;;;;0.77;0.30;;;;;;;9.32;58.88;98556.69;5080562;28;20047;-61
2022/11/06 05:48:45;;;;;;;1.90;0.40;;;;;;;9.26;58.84;98562.44;5088925;28;20036;-61
2022/11/06 05:51:11;;;;;;;1.42;0.30;;;;;;;9.30;58.17;98563.78;5097239;28;20478;-62
2022/11/06 05:53:36;;;;;;;1.40;0.50;;;;;;;9.29;58.65;98572.50;5098718;28;20035;-61
2022/11/06 05:56:02;;;;;;;0.88;0.40;;;;;;;9.28;57.74;98569.09;5098408;28;20766;-61
2022/11/06 05:58:28;;;;;;;0.77;0.35;;;;;;;9.09;57.66;98543.16;5100314;28;20035;-61
2022/11/06 06:00:54;;;;;;;1.02;0.30;;;;;;;9.33;57.64;98582.50;5101344;28;20035;-61
2022/11/06 06:03:20;;;;;;;0.50;0.30;;;;;;;9.28;57.23;98582.09;5091511;28;20027;-61
2022/11/06 06:05:45;;;;;;;0.75;0.30;;;;;;;9.22;57.30;98596.41;5086574;28;20127;-61
2022/11/06 06:08:11;;;;;;;1.08;0.30;;;;;;;9.31;57.29;98601.72;5095848;28;20030;-61
2022/11/06 06:10:40;;;;;;;2.63;0.50;;;;;;;9.31;57.55;98596.53;5096447;28;20039;-61
2022/11/06 06:13:06;;;;;;;1.85;0.60;;;;;;;9.11;57.27;98569.78;5084851;28;20031;-61
2022/11/06 06:15:31;;;;;;;1.55;0.40;;;;;;;9.21;57.00;98599.97;5096672;28;20028;-61
2022/11/06 06:17:57;;;;;;;0.95;0.40;;;;;;;9.21;58.13;98609.53;5099651;28;20078;-61
2022/11/06 06:20:23;;;;;;;1.50;0.40;;;;;;;9.23;58.39;98605.81;5098453;28;20039;-61
2022/11/06 06:22:53;;;;;;;1.02;0.40;;;;;;;9.22;58.60;98608.59;5098568;28;20470;-61
2022/11/06 06:25:19;;;;;;;1.67;0.50;;;;;;;9.30;59.05;98615.69;5094754;28;20023;-61
2022/11/06 06:27:44;;;;;;;0.60;0.30;;;;;;;9.34;58.69;98611.84;5089320;28;20039;-61
2022/11/06 06:30:10;;;;;;;1.25;0.47;;;;;;;9.31;58.97;98604.31;5083099;28;20492;-61
2022/11/06 06:32:36;;;;;;;2.15;0.57;;;;;;;9.30;58.94;98624.28;5098695;28;20441;-62
2022/11/06 06:35:02;;;;;;;1.65;0.55;;;;;;;9.34;59.12;98617.03;5099932;28;20034;-56
2022/11/06 06:37:27;;;;;;;1.95;0.57;;;;;;;9.38;59.35;98616.66;5097120;28;20031;-61
2022/11/06 06:39:52;;;;;;;0.85;0.38;;;;;;;9.34;59.48;98617.03;5090759;28;20410;-61
2022/11/06 06:42:18;;;;;;;2.47;0.60;;;;;;;9.43;59.27;98627.41;5096650;28;20119;-61
2022/11/06 06:44:43;;;;;;;1.40;0.47;;;;;;;9.44;59.43;98628.25;5100367;28;20043;-61
2022/11/06 06:47:08;;;;;;;1.58;0.45;;;;;;;9.30;60.28;98629.47;5095584;28;20701;-61
2022/11/06 06:49:34;;;;;;;1.23;0.47;;;;;;;9.39;59.68;98649.41;5100140;27;20030;-61
2022/11/06 06:52:00;;;;;;;2.20;0.52;;;;;;;9.35;59.87;98647.25;5114284;27;20039;-61
2022/11/06 06:54:25;;;;;;;1.65;0.50;;;;;;;9.32;60.58;98657.88;5092413;28;20063;-63
2022/11/06 06:56:51;;;;;;;1.08;0.40;;;;;;;9.29;60.67;98658.13;5097959;28;21690;-61
2022/11/06 06:59:16;;;;;;;0.73;0.40;;;;;;;9.16;59.89;98655.81;5102354;28;20077;-61
2022/11/06 07:01:42;;;;;;;1.33;0.40;;;;;;;9.10;61.03;98657.16;5095834;28;20613;-61
2022/11/06 07:04:08;;;;;;;1.27;0.60;;;;;;;9.07;61.18;98659.19;5098712;28;20032;-61
2022/11/06 07:06:34;;;;;;;1.60;0.50;;;;;;;9.10;60.32;98664.13;5092702;28;20031;-61
2022/11/06 07:08:59;;;;;;;1.77;0.60;;;;;;;9.13;60.62;98672.47;5095332;27;20012;-61
2022/11/06 07:11:25;;;;;;;2.80;0.40;;;;;;;9.10;61.02;98671.91;5105335;27;20035;-61
2022/11/06 07:13:50;;;;;;;0.95;0.35;;;;;;;9.18;60.39;98662.50;5100277;28;20032;-61
2022/11/06 07:16:15;;;;;;;1.35;0.47;;;;;;;9.14;60.89;98665.50;5099547;28;20034;-61
2022/11/06 07:18:41;;;;;;;1.40;0.40;;;;;;;9.07;60.80;98665.19;5108580;27;20055;-62
2022/11/06 07:21:08;;;;;;;1.70;0.32;;;;;;;9.01;60.76;98655.38;5091839;27;20036;-61
2022/11/06 07:23:34;;;;;;;1.70;0.50;;;;;;;9.12;60.30;98664.81;5094430;27;20844;-61
2022/11/06 07:26:00;;;;;;;1.25;0.40;;;;;;;9.16;60.25;98661.84;5075528;28;20035;-61
2022/11/06 07:28:25;;;;;;;1.10;0.50;;;;;;;9.14;60.20;98675.88;5095464;28;20100;-62
2022/11/06 07:30:51;;;;;;;1.58;0.52;;;;;;;9.12;60.34;98673.41;5098093;27;20066;-62
2022/11/06 07:33:16;;;;;;;0.95;0.40;;;;;;;8.90;61.02;98639.94;5094955;28;20035;-61
2022/11/06 07:35:42;;;;;;;0.65;0.30;;;;;;;9.09;61.03;98675.44;5099495;27;20107;-61
2022/11/06 07:38:07;;;;;;;2.53;0.60;;;;;;;9.10;60.94;98664.13;5103180;27;20031;-61
2022/11/06 07:40:33;;;;;;;1.77;0.55;;;;;;;9.02;60.96;98649.25;5131622;27;20111;-61
2022/11/06 07:43:03;;;;;;;1.50;0.50;;;;;;;9.10;61.07;98671.91;5092308;28;20085;-60
2022/11/06 07:45:29;;;;;;;3.63;0.70;;;;;;;9.08;61.32;98674.63;5095536;28;20118;-61
2022/11/06 07:47:58;;;;;;;2.40;0.60;;;;;;;9.13;61.15;98674.25;5093394;28;20020;-61
2022/11/06 07:50:23;;;;;;;2.45;0.60;;;;;;;9.12;61.67;98667.41;5110321;27;20180;-61
2022/11/06 07:52:49;;;;;;;2.10;0.50;;;;;;;9.21;60.46;98675.19;5109522;27;20031;-61
2022/11/06 07:55:14;;;;;;;1.65;0.60;;;;;;;9.17;59.96;98665.25;5099251;28;20113;-61
2022/11/06 07:57:40;;;;;;;1.92;0.52;;;;;;;9.14;60.37;98668.91;5109521;27;20035;-61
2022/11/06 08:00:07;;;;;;;2.33;0.50;;;;;;;9.13;60.82;98658.69;5099194;28;20023;-61
2022/11/06 08:02:32;;;;;;;1.33;0.47;;;;;;;9.17;60.63;98660.06;5091578;28;20475;-61
2022/11/06 08:04:57;;;;;;;1.92;0.57;;;;;;;9.04;59.88;98611.84;5096637;28;20035;-61
2022/11/06 08:07:23;;;;;;;2.05;0.52;;;;;;;9.31;60.29;98656.22;5088806;28;20095;-61
2022/11/06 08:09:48;;;;;;;1.90;0.60;;;;;;;9.30;60.47;98665.78;5097720;27;20039;-61
2022/11/06 08:12:13;;;;;;;1.80;0.60;;;;;;;9.27;60.70;98660.88;5098306;28;20045;-61
2022/11/06 08:14:40;;;;;;;2.05;0.50;;;;;;;9.18;60.17;98651.28;5107556;27;20587;-61
2022/11/06 08:20:27;;;;;;;1.23;0.47;;;;;;;9.28;60.95;98659.09;5093373;27;20569;-61
2022/11/06 08:22:57;;;;;;;1.85;0.45;;;;;;;9.26;61.07;98655.84;5094533;28;20027;-60
2022/11/06 08:25:22;;;;;;;1.75;0.50;;;;;;;9.30;61.11;98663.19;5098618;27;20027;-61
2022/11/06 08:27:48;;;;;;;1.70;0.60;;;;;;;9.36;60.67;98660.09;5092064;28;20501;-60
2022/11/06 08:30:13;;;;;;;1.50;0.40;;;;;;;9.35;60.18;98657.63;5096781;28;20039;-60
2022/11/06 08:32:39;;;;;;;1.85;0.60;;;;;;;9.41;59.88;98662.25;5088799;27;20035;-60
2022/11/06 08:35:05;;;;;;;2.17;0.70;;;;;;;9.43;59.73;98663.75;5099232;27;20036;-60
2022/11/06 08:37:30;;;;;;;3.10;1.00;;;;;;;9.50;59.47;98650.25;5100348;28;20115;-61
2022/11/06 08:39:56;;;;;;;4.03;1.40;;;;;;;9.29;59.83;98611.44;5092842;28;20692;-61
2022/11/06 08:42:21;;;;;;;2.65;0.85;;;;;;;9.65;59.08;98646.25;5099298;28;20039;-60
2022/11/06 08:44:47;;;;;;;2.28;0.60;;;;;;;9.61;58.99;98639.72;5096323;28;20031;-60
2022/11/06 08:47:12;;;;;;;2.08;0.68;;;;;;;9.66;59.36;98649.69;5098733;28;20035;-61
2022/11/06 08:49:37;;;;;;;3.13;1.20;;;;;;;9.68;59.57;98655.56;5108857;27;20135;-60
2022/11/06 08:52:03;;;;;;;4.97;1.67;;;;;;;9.74;59.14;98652.41;5109150;27;20597;-61
2022/11/06 08:54:28;;;;;;;5.43;1.83;;;;;;;9.69;58.71;98646.81;5094849;28;20039;-60
2022/11/06 08:56:53;;;;;;;5.63;1.77;;;;;;;9.69;59.18;98639.00;5094786;28;20022;-61
2022/11/06 08:59:19;;;;;;;7.47;2.20;;;;;;;9.55;59.64;98616.91;5074454;28;20743;-60
2022/11/06 09:01:44;;;;;;;5.00;1.30;;;;;;;9.75;59.31;98652.28;5106958;27;20023;-60
2022/11/06 09:04:10;;;;;;;7.50;2.92;;;;;;;9.73;59.86;98654.19;5091449;28;20031;-60
2022/11/06 09:06:35;;;;;;;7.55;2.80;;;;;;;9.69;60.08;98641.59;5097520;28;20031;-65
2022/11/06 09:09:01;;;;;;;6.07;1.60;;;;;;;9.77;59.50;98645.16;5094869;28;20035;-61
2022/11/06 09:11:26;;;;;;;3.05;0.90;;;;;;;9.59;59.89;98623.44;5080190;28;21076;-60
2022/11/06 09:13:52;;;;;;;4.13;0.90;;;;;;;9.79;59.70;98638.03;5080637;28;20669;-60
2022/11/06 09:16:17;;;;;;;3.63;1.00;;;;;;;9.82;59.94;98636.97;5099699;28;20024;-61
2022/11/06 09:18:42;;;;;;;3.75;0.98;;;;;;;9.67;59.75;98613.19;5099870;28;20028;-60
2022/11/06 09:21:08;;;;;;;5.57;2.13;;;;;;;9.90;59.50;98649.25;5076040;28;20043;-60
2022/11/06 09:23:34;;;;;;;2.65;0.82;;;;;;;9.57;59.72;98618.41;5094800;28;20035;-61
2022/11/06 09:25:59;;;;;;;3.30;0.80;;;;;;;9.77;59.93;98662.53;5075149;28;20353;-60
2022/11/06 09:28:25;;;;;;;1.58;0.60;;;;;;;9.80;59.20;98657.88;5095746;28;20466;-61
2022/11/06 09:30:50;;;;;;;2.10;0.65;;;;;;;9.91;59.12;98663.84;5108105;28;20339;-60
2022/11/06 09:33:16;;;;;;;2.95;1.00;;;;;;;9.99;58.87;98651.00;5098382;28;20077;-60
2022/11/06 09:35:41;;;;;;;2.65;0.80;;;;;;;9.94;59.74;98654.00;5092730;28;20034;-61
2022/11/06 09:38:10;;;;;;;1.90;0.60;;;;;;;9.95;59.59;98653.06;5113567;28;20482;-60
2022/11/06 09:40:38;;;;;;;1.40;0.52;;;;;;;10.02;59.67;98650.75;5105281;28;20035;-61
2022/11/06 09:43:57;;;;;;;2.83;0.80;;;;;;;10.19;58.96;98654.38;5076951;28;20038;-60
2022/11/06 09:46:51;;;;;;;7.38;2.83;;;;;;;10.26;57.99;98652.00;5005886;28;20038;-60
2022/11/06 09:49:24;;;;;;;3.80;1.05;;;;;;;10.15;55.80;98622.66;5092636;28;20078;-61
2022/11/06 09:51:55;;;;;;;2.45;0.80;;;;;;;10.44;55.73;98662.53;5093909;28;20843;-61
2022/11/06 09:54:27;;;;;;;3.67;1.00;;;;;;;10.54;56.64;98653.72;5099446;28;20024;-61
2022/11/06 09:56:56;;;;;;;5.70;1.35;;;;;;;10.64;55.70;98653.72;5092547;28;20557;-61
2022/11/06 09:59:21;;;;;;;5.97;1.23;;;;;;;10.63;55.05;98646.03;5098874;28;20038;-60
2022/11/06 10:01:53;;;;;;;2.70;0.60;;;;;;;10.75;53.91;98648.31;5097965;28;20671;-61
2022/11/06 10:04:52;;;;;;;2.50;0.88;;;;;;;10.81;52.76;98638.28;5093965;28;20541;-60
2022/11/06 10:07:30;;;;;;;3.90;0.73;;;;;;;10.89;52.90;98636.59;5098900;28;20084;-61
2022/11/06 10:09:56;;;;;;;2.22;0.60;;;;;;;10.99;52.11;98633.09;5102783;27;20016;-60
2022/11/06 10:12:34;;;;;;;2.22;0.52;;;;;;;11.09;51.39;98628.66;5083630;28;20497;-60
2022/11/06 10:15:17;;;;;;;4.57;1.30;;;;;;;11.10;51.65;98625.09;5101180;28;20031;-60
2022/11/06 10:17:58;;;;;;;1.92;0.55;;;;;;;11.18;51.64;98634.78;5098924;28;20653;-60
2022/11/06 10:20:58;;;;;;;1.70;0.45;;;;;;;11.08;50.66;98608.78;5096904;28;20043;-60
2022/11/06 10:23:47;;;;;;;3.25;0.70;;;;;;;11.09;51.01;98594.84;5097653;28;20032;-59
2022/11/06 10:26:21;;;;;;;2.50;0.60;;;;;;;11.36;50.02;98630.38;5132413;27;20073;-59
2022/11/06 10:29:15;;;;;;;2.80;0.65;;;;;;;11.16;49.52;98582.88;5100367;28;20508;-60
2022/11/06 10:32:17;;;;;;;2.83;0.80;;;;;;;11.54;50.34;98620.78;5100792;28;20030;-58
2022/11/06 10:34:46;;;;;;;1.85;0.60;;;;;;;11.55;50.76;98626.78;5100331;28;20032;-59
2022/11/06 10:37:18;;;;;;;2.38;0.68;;;;;;;11.55;51.80;98613.78;5085148;28;20039;-60
2022/11/06 10:39:45;;;;;;;1.30;0.50;;;;;;;11.60;50.80;98626.34;5083244;28;20051;-59
2022/11/06 10:42:19;;;;;;;1.23;0.50;;;;;;;11.61;51.63;98628.81;5100105;28;20056;-60
2022/11/06 10:44:58;;;;;;;2.28;0.63;;;;;;;11.66;52.24;98623.97;5095708;27;20039;-60
2022/11/06 10:47:36;;;;;;;2.37;0.60;;;;;;;11.76;50.27;98623.88;5100420;28;20024;-59
2022/11/06 10:50:04;;;;;;;1.17;0.43;;;;;;;11.60;50.77;98590.69;5094015;28;20473;-59
2022/11/06 10:52:52;;;;;;;1.45;0.50;;;;;;;11.86;50.33;98616.75;5095999;28;20020;-58
2022/11/06 10:55:58;;;;;;;1.75;0.52;;;;;;;11.91;50.54;98613.75;5114848;27;20100;-60
2022/11/06 10:58:29;;;;;;;0.80;0.40;;;;;;;11.81;49.13;98616.44;5101732;28;20077;-61
2022/11/06 11:01:01;;;;;;;1.58;0.50;;;;;;;11.93;48.67;98622.22;5094585;27;20248;-58
2022/11/06 11:03:34;;;;;;;1.92;0.60;;;;;;;11.78;48.49;98580.25;5097709;28;20028;-59
2022/11/06 11:06:01;;;;;;;2.75;0.85;;;;;;;11.93;48.28;98620.41;5108224;27;20024;-58
2022/11/06 11:08:30;;;;;;;1.83;0.60;;;;;;;12.05;49.68;98613.19;5093622;28;20042;-62
2022/11/06 11:11:05;;;;;;;2.15;0.60;;;;;;;12.12;50.75;98608.19;5096653;28;20042;-58
2022/11/06 11:13:32;;;;;;;3.50;0.70;;;;;;;11.96;50.80;98579.44;5108624;27;20043;-63
2022/11/06 11:15:57;;;;;;;1.58;0.50;;;;;;;12.20;49.62;98604.78;5082383;28;20432;-60
2022/11/06 11:18:30;;;;;;;2.25;0.60;;;;;;;12.20;52.33;98600.38;5102293;27;20043;-58
2022/11/06 11:21:06;;;;;;;2.17;0.60;;;;;;;12.30;50.86;98595.88;5099090;28;20028;-61
2022/11/06 11:23:32;;;;;;;1.35;0.40;;;;;;;12.06;52.49;98551.44;5100261;28;20465;-59
2022/11/06 11:26:23;;;;;;;1.80;0.60;;;;;;;12.41;53.05;98594.78;5102240;28;20031;-61
2022/11/06 11:28:53;;;;;;;1.77;0.57;;;;;;;12.27;50.85;98561.50;5103377;28;20031;-59
2022/11/06 11:31:19;;;;;;;1.90;0.60;;;;;;;12.10;51.62;98532.75;5093969;28;20046;-61
2022/11/06 11:33:52;;;;;;;1.65;0.63;;;;;;;12.49;51.05;98588.78;5084077;27;20566;-59
2022/11/06 11:36:18;;;;;;;1.65;0.60;;;;;;;12.31;52.58;98558.41;5082458;28;20092;-58
2022/11/06 11:38:44;;;;;;;1.52;0.65;;;;;;;12.56;52.88;98581.13;5099721;28;20035;-62
2022/11/06 11:41:21;;;;;;;1.95;0.60;;;;;;;12.59;51.92;98584.25;5098000;28;20020;-60
2022/11/06 11:44:08;;;;;;;2.42;0.60;;;;;;;12.63;51.68;98580.38;5098232;28;20147;-60
2022/11/06 11:46:34;;;;;;;1.95;0.60;;;;;;;12.03;49.25;98490.03;5094953;28;20039;-60
2022/11/06 11:49:01;;;;;;;2.00;0.60;;;;;;;12.53;52.52;98571.84;5095269;28;20136;-59
2022/11/06 11:51:34;;;;;;;2.17;0.77;;;;;;;12.63;52.69;98566.47;5098274;27;20277;-62
2022/11/06 11:54:06;;;;;;;2.47;0.60;;;;;;;12.59;52.50;98567.78;5110526;27;20083;-62
2022/11/06 11:56:32;;;;;;;1.77;0.60;;;;;;;12.66;53.59;98569.59;5092795;28;20023;-59
2022/11/06 11:59:00;;;;;;;1.85;0.60;;;;;;;12.71;53.33;98556.09;5090216;27;20046;-58
2022/11/06 12:01:39;;;;;;;2.10;0.68;;;;;;;12.77;51.21;98550.22;5097758;27;20027;-60
2022/11/06 12:04:15;;;;;;;2.25;0.70;;;;;;;12.77;51.13;98555.44;5097824;28;20032;-62
2022/11/06 12:06:56;;;;;;;2.55;0.77;;;;;;;12.79;50.93;98556.09;5114424;27;20031;-61
2022/11/06 12:09:22;;;;;;;2.42;0.70;;;;;;;12.80;51.39;98543.88;5096412;27;20054;-62